Latest Weather Observations for Mildura

IDN60801

Issued at 11:05 pm EST Wednesday 30 July 2014 (issued every 30 minutes, with the page automatically refreshed every 10 minutes)

About weather observations | Map of weather stations | Latest weather observations for NSW | Other Formats
Station Details ID: 076031 Name: MILDURA AIRPORT Lat: -34.24 Lon: 142.09 Height: 50.0 m
Data from the previous 72 hours. | See also: Recent months at Mildura
Date/Time
EST
Temp
°C
App
Temp
°C
Dew
Point
Rel
Hum
%
Delta-T
°C
Wind Press
QNH
hPa
Press
MSL
hPa
Rain
since 9 am
mm
Dir
 
Spd
km/h
Gust
km/h
Spd
kts
Gust
kts
30/11:00pm 8.7 6.8 7.4 91 0.6 N 7 7 4 4 1014.9 1015.0 0.0
30/10:30pm 9.7 8.1 8.0 89 0.8 N 6 7 3 4 1015.4 - 0.0
30/10:00pm 10.2 8.2 7.3 82 1.4 N 7 9 4 5 1015.6 1015.7 0.0
30/09:30pm 10.1 9.5 7.6 84 1.2 CALM 0 0 0 0 1015.6 - 0.0
30/09:00pm 10.4 9.8 7.5 82 1.4 CALM 0 0 0 0 1015.5 1015.6 0.0
30/08:30pm 10.9 10.3 7.6 80 1.6 WNW 0 0 0 0 1015.8 - 0.0
30/08:00pm 12.5 10.7 7.8 73 2.3 WNW 7 7 4 4 1015.8 1015.9 0.0
30/07:30pm 12.8 11.0 7.9 72 2.4 W 7 9 4 5 1015.8 - 0.0
30/07:00pm 13.5 11.7 8.1 70 2.7 W 7 7 4 4 1015.7 1015.8 0.0
30/06:30pm 15.1 13.6 8.4 64 3.4 W 6 9 3 5 1015.6 - 0.0
30/06:00pm 17.1 15.2 7.6 53 4.8 NW 7 11 4 6 1015.6 1015.7 0.0
30/05:30pm 18.6 15.5 7.1 47 5.8 WNW 13 22 7 12 1015.7 - 0.0
30/05:00pm 19.5 15.2 6.8 43 6.4 NW 19 26 10 14 1015.6 1015.7 0.0
30/04:30pm 20.0 15.0 6.5 41 6.8 NW 22 33 12 18 1015.6 - 0.0
30/04:00pm 19.8 15.3 7.0 43 6.5 WNW 20 30 11 16 1015.8 1015.9 0.0
30/03:30pm 20.1 15.2 6.9 42 6.7 WNW 22 37 12 20 1016.1 - 0.0
30/03:00pm 20.2 15.3 6.8 41 6.8 WNW 22 33 12 18 1016.3 1016.4 0.0
30/02:30pm 19.7 15.3 7.3 44 6.3 NW 20 33 11 18 1016.6 - 0.0
30/02:00pm 19.9 14.3 7.1 43 6.5 NW 26 39 14 21 1017.2 1017.2 0.0
30/01:30pm 18.7 14.4 7.7 48 5.6 W 20 30 11 16 1017.5 - 0.0
30/01:00pm 18.9 14.6 8.0 49 5.6 WNW 20 30 11 16 1018.1 1018.1 0.0
30/12:30pm 18.9 14.3 8.2 50 5.5 W 22 32 12 17 1018.5 - 0.0
30/12:00pm 18.4 13.4 8.0 50 5.3 WNW 24 33 13 18 1019.1 1019.1 0.0
30/11:30am 18.1 14.1 8.1 52 5.1 WNW 19 30 10 16 1019.6 - 0.0
30/11:00am 17.2 13.0 8.4 56 4.5 WNW 20 30 11 16 1019.9 1020.0 0.0
30/10:30am 16.7 12.2 8.5 58 4.2 WNW 22 32 12 17 1020.1 - 0.0
30/10:00am 15.6 11.8 7.6 59 4.0 WNW 17 30 9 16 1020.1 1020.2 0.0
30/09:30am 14.3 9.8 7.1 62 3.5 WNW 20 28 11 15 1020.2 - 0.0
30/09:00am 12.8 9.3 7.0 68 2.8 NW 15 22 8 12 1019.8 1019.9 0.0
30/08:30am 11.0 7.8 6.8 75 2.0 NW 13 19 7 10 1019.7 - 0.0
30/08:00am 9.7 7.2 6.7 81 1.4 NW 9 11 5 6 1019.6 1019.6 0.0
30/07:30am 9.1 6.6 6.5 84 1.2 NNW 9 15 5 8 1019.3 - 0.0
30/07:00am 9.1 7.0 6.5 84 1.2 NNW 7 11 4 6 1018.9 1018.9 0.0
30/06:30am 9.6 6.8 6.8 83 1.3 NW 11 15 6 8 1018.9 - 0.0
30/06:00am 9.4 7.0 6.8 84 1.2 NNW 9 13 5 7 1018.6 1018.6 0.0
30/05:30am 9.9 7.4 6.7 80 1.5 NW 9 13 5 7 1018.4 - 0.0
30/05:00am 10.0 7.6 6.8 80 1.5 NNW 9 11 5 6 1018.2 1018.2 0.0
30/04:30am 10.2 7.8 6.8 79 1.6 NNW 9 13 5 7 1018.2 - 0.0
30/04:00am 10.7 8.3 6.9 77 1.8 NNW 9 13 5 7 1018.1 1018.1 0.0
30/03:30am 11.2 8.5 7.2 76 1.9 NNW 11 13 6 7 1018.4 - 0.0
30/03:00am 11.3 9.0 7.3 76 1.9 NW 9 13 5 7 1018.7 1018.7 0.0
30/02:30am 13.2 10.2 7.9 70 2.6 NW 13 17 7 9 1018.6 - 0.0
30/02:00am 14.1 11.1 7.8 66 3.1 WNW 13 20 7 11 1018.7 1018.7 0.0
30/01:30am 14.6 11.7 8.0 64 3.3 WNW 13 19 7 10 1018.8 - 0.0
30/01:00am 14.7 11.8 8.1 64 3.3 WNW 13 17 7 9 1018.9 1018.9 0.0
30/12:30am 15.5 11.8 7.9 60 3.8 WNW 17 22 9 12 1019.0 - 0.0
30/12:00am 16.4 13.1 7.9 57 4.3 WNW 15 20 8 11 1018.9 1018.9 0.0
 
Date/Time
EST
Temp
°C
App
Temp
°C
Dew
Point
Rel
Hum
%
Delta-T
°C
Wind Press
QNH
hPa
Press
MSL
hPa
Rain
since 9 am
mm
Dir
 
Spd
km/h
Gust
km/h
Spd
kts
Gust
kts
29/11:30pm 16.5 12.8 8.0 57 4.3 WNW 17 24 9 13 1019.0 - 0.0
29/11:00pm 16.3 13.0 8.0 58 4.2 NW 15 19 8 10 1019.0 1019.0 0.0
29/10:30pm 15.3 12.9 8.6 64 3.4 NW 11 17 6 9 1018.9 - 0.0
29/10:00pm 16.2 13.8 8.6 60 3.9 NW 11 15 6 8 1018.9 1018.9 0.0
29/09:30pm 16.0 14.0 8.5 61 3.8 NW 9 11 5 6 1018.8 - 0.0
29/09:00pm 16.2 14.2 8.6 60 3.9 NW 9 13 5 7 1018.7 1018.7 0.0
29/08:30pm 16.6 14.1 8.4 58 4.2 WNW 11 15 6 8 1018.5 - 0.0
29/08:00pm 16.6 14.1 8.4 58 4.2 WNW 11 17 6 9 1018.2 1018.2 0.0
29/07:30pm 17.1 14.2 8.3 56 4.5 WNW 13 17 7 9 1018.1 - 0.0
29/07:00pm 17.0 14.5 8.4 57 4.4 WNW 11 15 6 8 1018.0 1018.0 0.0
29/06:30pm 17.3 13.7 8.3 55 4.6 W 17 24 9 13 1017.8 - 0.0
29/06:00pm 17.7 13.6 7.9 52 5.0 W 19 32 10 17 1017.5 1017.5 0.0
29/05:30pm 18.3 12.8 7.4 49 5.5 W 26 35 14 19 1017.2 - 0.0
29/05:00pm 18.8 14.5 6.8 45 6.0 W 19 30 10 16 1016.7 1016.8 0.0
29/04:30pm 19.2 13.4 6.4 43 6.4 W 26 37 14 20 1016.4 - 0.0
29/04:00pm 19.4 13.6 6.1 42 6.6 W 26 43 14 23 1016.2 1016.3 0.0
29/03:30pm 20.8 13.7 5.5 36 7.6 WNW 32 46 17 25 1016.0 - 0.0
29/03:00pm 20.5 13.8 5.8 38 7.3 WNW 30 44 16 24 1016.0 1016.1 0.0
29/02:30pm 20.2 13.5 5.7 38 7.2 W 30 41 16 22 1015.9 - 0.0
29/02:00pm 19.7 13.5 6.0 40 6.8 W 28 43 15 23 1016.1 1016.2 0.0
29/01:30pm 19.3 12.2 5.4 40 6.8 WNW 32 44 17 24 1016.3 - 0.0
29/01:00pm 19.3 12.9 5.1 39 6.9 WNW 28 43 15 23 1016.9 1016.9 0.0
29/12:30pm 18.4 11.9 4.9 41 6.5 WNW 28 39 15 21 1017.3 - 0.0
29/12:00pm 18.1 11.9 4.2 39 6.6 W 26 43 14 23 1017.7 1017.7 0.0
29/11:36am 17.6 11.0 4.3 41 6.3 WNW 28 46 15 25 1017.8 - 0.0
29/11:30am 18.0 11.7 4.0 39 6.6 WNW 26 39 14 21 1017.8 - 0.0
29/11:00am 17.6 11.6 3.1 38 6.7 WNW 24 35 13 19 1018.0 1018.0 0.0
29/10:30am 16.5 10.5 3.2 41 6.1 NW 24 35 13 19 1018.0 - 0.0
29/10:00am 15.9 10.2 2.9 41 5.9 NW 22 37 12 20 1018.0 1018.0 0.0
29/09:30am 14.1 9.4 5.1 54 4.2 NW 19 26 10 14 1017.9 - 0.0
29/09:00am 12.1 8.2 5.2 62 3.2 NNW 15 20 8 11 1017.8 1017.8 0.0
29/08:30am 10.3 5.9 4.7 68 2.5 NNW 17 24 9 13 1017.6 - 0.0
29/08:00am 9.3 5.5 4.1 70 2.3 NNW 13 19 7 10 1017.5 1017.5 0.0
29/07:30am 9.4 5.6 3.7 67 2.5 NNW 13 19 7 10 1017.2 - 0.0
29/07:00am 9.2 5.4 3.7 68 2.4 NNW 13 19 7 10 1016.7 1016.8 0.0
29/06:30am 8.8 5.3 3.7 70 2.2 NNW 11 17 6 9 1016.9 - 0.0
29/06:00am 8.9 5.1 4.1 72 2.1 NNW 13 20 7 11 1016.4 1016.5 0.0
29/05:30am 8.5 5.1 4.2 74 1.9 NNW 11 15 6 8 1016.3 - 0.0
29/05:00am 7.5 4.5 4.3 80 1.4 NW 9 11 5 6 1016.5 1016.6 0.0
29/04:30am 8.2 5.2 4.3 76 1.7 NW 9 13 5 7 1016.4 - 0.0
29/04:00am 8.9 6.0 4.4 73 2.0 NNW 9 13 5 7 1016.5 1016.6 0.0
29/03:30am 10.2 6.9 4.6 68 2.5 N 11 17 6 9 1016.3 - 0.0
29/03:00am 10.1 6.8 4.8 69 2.4 NNW 11 13 6 7 1016.5 1016.6 0.0
29/02:30am 10.5 7.2 4.7 67 2.6 NNW 11 15 6 8 1017.0 - 0.0
29/02:00am 9.9 6.5 4.0 67 2.6 WNW 11 13 6 7 1017.2 1017.2 0.0
29/01:30am 9.8 6.8 3.9 66 2.6 NW 9 13 5 7 1017.4 - 0.0
29/01:00am 10.6 7.2 3.8 63 3.0 NNW 11 15 6 8 1017.5 1017.5 0.0
29/12:30am 10.4 7.3 3.8 63 2.9 NNW 9 11 5 6 1017.5 - 0.0
29/12:00am 9.7 7.1 4.3 69 2.4 WNW 7 11 4 6 1017.6 1017.6 0.0
 
Date/Time
EST
Temp
°C
App
Temp
°C
Dew
Point
Rel
Hum
%
Delta-T
°C
Wind Press
QNH
hPa
Press
MSL
hPa
Rain
since 9 am
mm
Dir
 
Spd
km/h
Gust
km/h
Spd
kts
Gust
kts
28/11:30pm 9.4 6.8 4.4 71 2.2 WNW 7 9 4 5 1017.6 - 0.0
28/11:00pm 10.1 7.6 4.5 68 2.5 NW 7 9 4 5 1017.4 1017.4 0.0
28/10:30pm 10.5 8.2 5.0 69 2.5 NNW 6 7 3 4 1017.5 - 0.0
28/10:00pm 10.8 8.3 4.8 66 2.7 NNW 7 9 4 5 1017.5 1017.5 0.0
28/09:30pm 10.5 8.2 4.7 67 2.6 NNW 6 7 3 4 1017.6 - 0.0
28/09:00pm 11.2 10.4 6.5 73 2.2 CALM 0 0 0 0 1017.6 1017.6 0.0
28/08:30pm 12.2 10.1 5.8 65 3.0 NNW 6 7 3 4 1017.3 - 0.0
28/08:00pm 13.2 11.1 5.8 61 3.5 NNW 6 7 3 4 1017.3 1017.3 0.0
28/07:30pm 12.8 12.0 6.5 65 3.0 CALM 0 0 0 0 1017.0 - 0.0
28/07:00pm 13.5 12.6 5.9 60 3.6 CALM 0 0 0 0 1016.7 1016.8 0.0
28/06:30pm 13.5 12.7 6.6 63 3.3 CALM 0 0 0 0 1016.6 - 0.0
28/06:00pm 14.2 13.1 7.0 62 3.5 W 2 6 1 3 1016.5 1016.6 0.0
28/05:30pm 14.8 14.3 7.8 63 3.5 CALM 0 0 0 0 1016.3 - 0.0
28/05:00pm 15.5 13.2 4.9 49 5.0 NNW 6 9 3 5 1016.3 1016.4 0.0
28/04:30pm 15.9 12.8 3.8 44 5.6 WSW 9 15 5 8 1016.3 - 0.0
28/04:00pm 17.0 12.9 2.1 36 6.7 W 13 17 7 9 1016.9 1016.9 0.0
28/03:30pm 17.3 13.4 1.3 34 7.1 W 11 17 6 9 1016.9 - 0.0
28/03:00pm 17.7 13.4 1.3 33 7.3 W 13 19 7 10 1017.1 1017.1 0.0
28/02:30pm 18.0 12.9 0.8 31 7.6 W 17 22 9 12 1017.2 - 0.0
28/02:00pm 17.8 12.6 0.4 31 7.6 WNW 17 24 9 13 1017.3 1017.3 0.0
28/01:30pm 18.0 12.5 0.4 30 7.7 NW 19 26 10 14 1017.8 - 0.0
28/01:00pm 17.2 11.3 -0.7 29 7.6 WNW 20 28 11 15 1018.3 1018.3 0.0
28/12:30pm 17.3 11.6 -0.5 30 7.6 WNW 19 30 10 16 1018.7 - 0.0
28/12:00pm 16.7 11.4 -0.5 31 7.3 NW 17 26 9 14 1018.9 1018.9 0.0
28/11:30am 15.8 10.5 -0.3 33 6.8 NW 17 28 9 15 1019.4 - 0.0
28/11:00am 15.3 10.0 -0.8 33 6.7 NW 17 26 9 14 1019.4 1019.4 0.0
28/10:30am 13.8 9.3 -0.1 38 5.8 N 13 20 7 11 1019.7 - 0.0
28/10:00am 13.6 8.7 -0.5 38 5.8 NNW 15 22 8 12 1019.9 1020.0 0.0
28/09:30am 13.0 8.5 -0.4 39 5.5 NNW 13 19 7 10 1020.0 - 0.0
28/09:00am 11.6 7.4 -0.6 43 4.9 N 11 15 6 8 1019.9 1020.0 0.0
28/08:30am 10.7 7.6 1.1 51 4.0 N 7 11 4 6 1019.4 - 0.0
28/08:00am 10.1 6.9 0.8 52 3.8 N 7 9 4 5 1019.4 1019.4 0.0
28/07:30am 10.2 6.9 0.0 49 4.1 N 7 9 4 5 1019.4 - 0.0
28/07:00am 10.4 6.7 -0.3 47 4.3 N 9 13 5 7 1019.2 1019.2 0.0
28/06:30am 10.9 7.1 -0.6 45 4.6 N 9 13 5 7 1019.1 - 0.0
28/06:00am 10.9 7.2 -0.3 46 4.5 N 9 11 5 6 1019.1 1019.1 0.0
28/05:30am 10.9 7.2 -0.3 46 4.5 N 9 13 5 7 1019.0 - 0.0
28/05:00am 11.5 7.4 0.0 45 4.7 NNW 11 15 6 8 1019.2 1019.2 0.0
28/04:30am 11.8 7.6 -0.6 42 5.0 N 11 15 6 8 1019.4 - 0.0
28/04:00am 12.0 7.5 -0.6 41 5.1 NNW 13 17 7 9 1019.4 1019.4 0.0
28/03:30am 12.2 7.7 -0.3 42 5.1 NNW 13 22 7 12 1019.5 - 0.0
28/03:00am 12.5 8.0 -0.2 41 5.2 NNW 13 19 7 10 1019.9 1020.0 0.0
28/02:30am 11.9 8.0 0.9 47 4.6 N 11 17 6 9 1020.2 - 0.0
28/02:00am 11.9 8.0 1.2 48 4.5 N 11 13 6 7 1020.0 1020.1 0.0
28/01:30am 12.4 8.5 1.0 45 4.8 NNW 11 17 6 9 1020.4 - 0.0
28/01:00am 12.1 8.3 1.5 48 4.5 N 11 15 6 8 1020.5 1020.6 0.0
28/12:30am 12.8 8.9 1.3 45 4.9 N 11 15 6 8 1020.9 - 0.0
28/12:00am 13.3 9.4 1.4 44 5.1 NNW 11 17 6 9 1021.0 1021.1 0.0
 
Date/Time
EST
Temp
°C
App
Temp
°C
Dew
Point
Rel
Hum
%
Delta-T
°C
Wind Press
QNH
hPa
Press
MSL
hPa
Rain
since 9 am
mm
Dir
 
Spd
km/h
Gust
km/h
Spd
kts
Gust
kts
27/11:30pm 13.6 9.7 1.2 43 5.3 NNW 11 15 6 8 1021.3 - 0.0

Other Formats:

Comma delimited format used in spreadsheet applications
http://www.bom.gov.au/fwo/IDN60801/IDN60801.94693.axf

JavaScript Object Notation format (JSON) in row-major order
http://www.bom.gov.au/fwo/IDN60801/IDN60801.94693.json